Holloman Air Force Base
KHMN : now visible

Airfield :











YOU CAN JOIN US ON...

 
LOGIN :

Register | Disclaimer

   EN    FR    IT 

 









Legend :    VFR   Marginal VFR   IFR   Intensive IFR   Very Intensive IFR
Visi :
Ceiling :
>= 8 km
>= 3000ft
5 to 8 km
1000 to 3000 ft
1500m to 5 km
500 to 1000 ft
800 to 1500m
200 to 500 ft
< 800m
< 200 ft
Symbols :   Thunderstorms  Fog  Heavy snow  Heavy precipitations  Wind > 20 kt






- Airport Elevation : 4093 ft


KHMN - Holloman Air Force Base

CURRENT METAR :
  • 061458Z AUTO 14003KT 10SM CLR 02/M01 A3035 RMK AO2 SLP259 T00211007 52023 $

EXPIRED METARs :
  • 061358Z AUTO 13005KT 10SM CLR 00/M02 A3032 RMK AO2 SLP252 T10011020 $
  • 061258Z AUTO 00000KT 10SM CLR 00/M02 A3029 RMK AO2 SLP238 T00041018 $

TAF AMD TAF KHMN
Valid from the 06 at 14:00 until the 07 at 15:00 UTC


061407Z 0614/0715 VRB06KT 9999 SCT250 QNH3024INS
BECMG 0614/0615 VRB06KT 9999 BKN250 QNH3030INS
BECMG 0621/0622 VRB06KT 9999 SCT250 QNH3026INS
BECMG 0702/0703 VRB06KT 9999 FEW250 QNH3026INS TX16/0622Z TN00/0614Z



MET'MAP, your aeronautical weather chart ! - Copyright ORBIFLY December 2007 - Disclaimer

ORBIFLY MET'MAP TEAM :

Programming & Development : Alexandra Zaïnal
Concept & original design : Baudouin d'Aumeries
Assistance for programming : Marc-Olivier Méhu
Technical & hardware support : Manuel Goepfert

Contact : metmap@orbifly.com




SOURCES & CREDITS :

   NOAA       Earth
Advisory